createdAt,value
2023-05-02T00:00:23.609Z,25.00
2023-05-02T00:01:23.606Z,25.00
2023-05-02T00:02:23.674Z,25.00
2023-05-02T00:03:23.689Z,0.00
2023-05-02T00:04:23.697Z,0.00
2023-05-02T00:05:23.592Z,0.00
2023-05-02T00:06:23.600Z,0.00
2023-05-02T00:07:23.558Z,0.00
2023-05-02T00:08:23.547Z,0.00
2023-05-02T00:09:23.544Z,0.00
2023-05-02T00:10:23.536Z,13.76
2023-05-02T00:11:23.531Z,25.00
2023-05-02T00:12:23.515Z,25.19
2023-05-02T00:13:23.621Z,25.87
2023-05-02T00:14:23.510Z,25.82
2023-05-02T00:15:23.498Z,25.00
2023-05-02T00:16:23.519Z,25.22
2023-05-02T00:17:23.599Z,25.00
2023-05-02T00:18:23.478Z,25.00
2023-05-02T00:19:23.478Z,25.00
2023-05-02T00:20:23.465Z,25.00
2023-05-02T00:21:23.446Z,26.38
2023-05-02T00:22:23.440Z,26.24
2023-05-02T00:23:23.841Z,25.47
2023-05-02T00:24:23.445Z,26.65
2023-05-02T00:25:23.448Z,25.00
2023-05-02T00:26:23.483Z,25.00
2023-05-02T00:27:23.494Z,26.45
2023-05-02T00:28:23.508Z,25.00
2023-05-02T00:29:23.554Z,26.15
2023-05-02T00:30:23.541Z,27.15
2023-05-02T00:31:23.580Z,27.87
2023-05-02T00:32:23.581Z,25.96
2023-05-02T00:33:23.589Z,26.78
2023-05-02T00:34:23.610Z,27.91
2023-05-02T00:35:23.641Z,26.37
2023-05-02T00:36:23.649Z,29.56
2023-05-02T00:37:23.663Z,26.88
2023-05-02T00:38:23.685Z,25.20
2023-05-02T00:39:23.717Z,27.48
2023-05-02T00:40:23.726Z,28.31
2023-05-02T00:41:23.741Z,26.21
2023-05-02T00:42:23.770Z,27.59
2023-05-02T00:43:23.772Z,27.19
2023-05-02T00:44:23.798Z,26.18
2023-05-02T00:45:23.937Z,26.67
2023-05-02T00:46:23.886Z,25.47
2023-05-02T00:47:23.934Z,28.06
2023-05-02T00:48:23.873Z,28.30
2023-05-02T00:49:23.899Z,29.22
2023-05-02T00:50:23.922Z,28.32
2023-05-02T00:51:23.937Z,29.05
2023-05-02T00:52:23.952Z,26.85
2023-05-02T00:53:23.969Z,26.98
2023-05-02T00:54:23.989Z,26.56
2023-05-02T00:55:24.009Z,25.83
2023-05-02T00:56:24.029Z,30.78
2023-05-02T00:57:24.044Z,29.45
2023-05-02T00:58:24.060Z,28.01
2023-05-02T00:59:24.082Z,27.33
2023-05-02T01:00:24.104Z,27.63
2023-05-02T01:01:24.176Z,26.40
2023-05-02T01:02:24.242Z,27.70
2023-05-02T01:03:24.191Z,27.98
2023-05-02T01:04:24.166Z,25.22
2023-05-02T01:05:24.180Z,28.27
2023-05-02T01:06:24.262Z,30.08
2023-05-02T01:07:24.208Z,28.19
2023-05-02T01:08:24.221Z,27.49
2023-05-02T01:09:24.242Z,27.42
2023-05-02T01:10:24.285Z,27.58
2023-05-02T01:11:24.283Z,28.17
2023-05-02T01:12:24.285Z,26.38
2023-05-02T01:13:24.307Z,28.70
2023-05-02T01:14:24.322Z,26.07
2023-05-02T01:15:24.367Z,28.82
2023-05-02T01:16:24.407Z,27.61
2023-05-02T01:17:24.491Z,30.07
2023-05-02T01:18:24.386Z,28.02
2023-05-02T01:19:24.406Z,28.52
2023-05-02T01:20:24.420Z,25.34
2023-05-02T01:21:24.445Z,27.78
2023-05-02T01:22:25.122Z,29.03
2023-05-02T01:23:24.478Z,30.23
2023-05-02T01:24:24.506Z,28.36
2023-05-02T01:25:24.525Z,29.36
2023-05-02T01:26:24.545Z,25.64
2023-05-02T01:27:24.549Z,28.35
2023-05-02T01:28:24.563Z,29.30
2023-05-02T01:29:24.592Z,26.99
2023-05-02T01:30:24.603Z,28.05
2023-05-02T01:31:24.679Z,26.31
2023-05-02T01:32:24.652Z,29.86
2023-05-02T01:33:24.674Z,28.50
2023-05-02T01:34:24.670Z,28.24
2023-05-02T01:35:24.687Z,27.41
2023-05-02T01:36:24.708Z,27.98
2023-05-02T01:37:24.734Z,29.95
2023-05-02T01:38:24.743Z,29.12
2023-05-02T01:39:24.766Z,28.63
2023-05-02T01:40:24.782Z,28.23
2023-05-02T01:41:24.792Z,31.74
2023-05-02T01:42:24.817Z,29.10
2023-05-02T01:43:24.840Z,27.61
2023-05-02T01:44:24.847Z,26.52
2023-05-02T01:45:24.878Z,28.90
2023-05-02T01:46:24.903Z,29.06
2023-05-02T01:47:24.913Z,25.10
2023-05-02T01:48:24.908Z,27.97
2023-05-02T01:49:24.957Z,26.52
2023-05-02T01:50:24.952Z,28.69
2023-05-02T01:51:24.966Z,25.82
2023-05-02T01:52:25.000Z,27.69
2023-05-02T01:53:25.003Z,27.70
2023-05-02T01:54:25.050Z,29.82
2023-05-02T01:55:25.042Z,30.37
2023-05-02T01:56:25.052Z,28.60
2023-05-02T01:57:25.080Z,28.74
2023-05-02T01:58:25.100Z,28.09
2023-05-02T01:59:25.141Z,30.47
2023-05-02T02:00:25.149Z,28.09
2023-05-02T02:01:25.195Z,26.75
2023-05-02T02:02:25.186Z,30.80
2023-05-02T02:03:25.234Z,30.26
2023-05-02T02:04:25.354Z,29.18
2023-05-02T02:05:25.249Z,27.32
2023-05-02T02:06:25.247Z,28.20
2023-05-02T02:07:25.275Z,29.54
2023-05-02T02:08:25.287Z,29.71
2023-05-02T02:09:25.301Z,29.66
2023-05-02T02:10:25.327Z,28.90
2023-05-02T02:11:25.354Z,27.40
2023-05-02T02:12:25.369Z,29.66
2023-05-02T02:13:25.405Z,29.66
2023-05-02T02:14:25.457Z,25.63
2023-05-02T02:15:25.458Z,28.32
2023-05-02T02:16:25.571Z,26.99
2023-05-02T02:17:25.538Z,29.07
2023-05-02T02:18:25.504Z,28.57
2023-05-02T02:19:25.536Z,29.12
2023-05-02T02:20:25.549Z,27.74
2023-05-02T02:21:25.595Z,27.16
2023-05-02T02:22:25.591Z,29.65
2023-05-02T02:23:25.616Z,29.92
2023-05-02T02:24:25.646Z,29.28
2023-05-02T02:25:25.668Z,30.76
2023-05-02T02:26:25.685Z,29.96
2023-05-02T02:27:25.711Z,31.75
2023-05-02T02:28:25.731Z,28.33
2023-05-02T02:29:25.760Z,29.68
2023-05-02T02:30:25.784Z,25.92
2023-05-02T02:31:25.888Z,29.84
2023-05-02T02:32:25.887Z,26.66
2023-05-02T02:33:25.856Z,25.26
2023-05-02T02:34:25.877Z,25.76
2023-05-02T02:35:25.901Z,31.86
2023-05-02T02:36:25.931Z,28.28
2023-05-02T02:37:25.985Z,29.59
2023-05-02T02:38:25.984Z,26.39
2023-05-02T02:39:26.003Z,30.61
2023-05-02T02:40:26.025Z,30.28
2023-05-02T02:41:26.044Z,29.84
2023-05-02T02:42:26.062Z,29.97
2023-05-02T02:43:26.080Z,30.16
2023-05-02T02:44:26.109Z,29.55
2023-05-02T02:45:26.129Z,28.15
2023-05-02T02:46:26.166Z,30.01
2023-05-02T02:47:26.182Z,27.84
2023-05-02T02:48:26.189Z,26.20
2023-05-02T02:49:26.218Z,30.58
2023-05-02T02:50:26.234Z,29.59
2023-05-02T02:51:26.254Z,28.31
2023-05-02T02:52:26.273Z,27.87
2023-05-02T02:53:26.324Z,28.17
2023-05-02T02:54:27.287Z,28.91
2023-05-02T02:55:26.349Z,29.48
2023-05-02T02:56:26.380Z,30.05
2023-05-02T02:57:26.395Z,29.99
2023-05-02T02:58:26.420Z,29.00
2023-05-02T02:59:26.443Z,27.21
2023-05-02T03:00:26.463Z,31.06
2023-05-02T03:01:26.512Z,32.50
2023-05-02T03:02:26.507Z,26.40
2023-05-02T03:03:26.640Z,29.05
2023-05-02T03:04:26.556Z,28.12
2023-05-02T03:05:26.577Z,29.93
2023-05-02T03:06:26.667Z,27.75
2023-05-02T03:07:26.627Z,28.87
2023-05-02T03:08:26.640Z,26.81
2023-05-02T03:09:26.690Z,30.39
2023-05-02T03:10:26.687Z,30.27
2023-05-02T03:11:27.724Z,29.09
2023-05-02T03:12:26.704Z,32.15
2023-05-02T03:13:26.704Z,30.43
2023-05-02T03:14:26.705Z,29.94
2023-05-02T03:15:26.680Z,31.95
2023-05-02T03:16:26.680Z,29.44
2023-05-02T03:17:26.667Z,29.23
2023-05-02T03:18:26.657Z,28.69
2023-05-02T03:19:26.889Z,30.10
2023-05-02T03:20:26.657Z,29.11
2023-05-02T03:21:26.652Z,30.19
2023-05-02T03:22:26.647Z,29.18
2023-05-02T03:23:26.640Z,28.96
2023-05-02T03:24:26.632Z,27.06
2023-05-02T03:25:26.753Z,28.17
2023-05-02T03:26:26.616Z,28.00
2023-05-02T03:27:26.619Z,30.26
2023-05-02T03:28:26.605Z,27.65
2023-05-02T03:29:26.579Z,27.97
2023-05-02T03:30:26.583Z,28.66
2023-05-02T03:31:26.984Z,29.88
2023-05-02T03:32:26.686Z,27.20
2023-05-02T03:33:26.553Z,28.61
2023-05-02T03:34:26.555Z,31.33
2023-05-02T03:35:26.541Z,27.13
2023-05-02T03:36:26.556Z,27.47
2023-05-02T03:37:26.526Z,28.83
2023-05-02T03:38:26.514Z,31.90
2023-05-02T03:39:26.517Z,27.72
2023-05-02T03:40:26.498Z,29.44
2023-05-02T03:41:26.536Z,29.38
2023-05-02T03:42:26.498Z,30.59
2023-05-02T03:43:26.505Z,29.51
2023-05-02T03:44:26.481Z,29.64
2023-05-02T03:45:26.470Z,33.81
2023-05-02T03:46:26.540Z,30.28
2023-05-02T03:47:26.484Z,29.10
2023-05-02T03:48:26.446Z,28.24
2023-05-02T03:49:26.452Z,28.12
2023-05-02T03:50:26.446Z,29.76
2023-05-02T03:51:26.435Z,28.77
2023-05-02T03:52:26.415Z,28.98
2023-05-02T03:53:26.405Z,28.33
2023-05-02T03:54:26.419Z,26.39
2023-05-02T03:55:26.400Z,27.92
2023-05-02T03:56:26.404Z,28.22
2023-05-02T03:57:26.439Z,29.23
2023-05-02T03:58:26.396Z,31.98
2023-05-02T03:59:26.467Z,27.81
2023-05-02T04:00:26.471Z,30.31
2023-05-02T04:01:26.500Z,28.27
2023-05-02T04:02:26.590Z,29.40
2023-05-02T04:03:29.330Z,29.00
2023-05-02T04:04:26.602Z,29.21
2023-05-02T04:05:26.538Z,28.96
2023-05-02T04:06:26.579Z,29.13
2023-05-02T04:07:26.525Z,27.78
2023-05-02T04:08:26.504Z,28.01
2023-05-02T04:09:26.508Z,29.17
2023-05-02T04:10:26.493Z,27.82
2023-05-02T04:11:26.483Z,26.58
2023-05-02T04:12:26.495Z,29.22
2023-05-02T04:13:26.526Z,25.80
2023-05-02T04:14:26.461Z,29.02
2023-05-02T04:15:26.451Z,30.38
2023-05-02T04:16:26.460Z,31.58
2023-05-02T04:17:26.500Z,28.99
2023-05-02T04:18:26.439Z,28.67
2023-05-02T04:19:26.415Z,30.58
2023-05-02T04:20:26.415Z,28.94
2023-05-02T04:21:26.846Z,29.62
2023-05-02T04:22:26.442Z,30.82
2023-05-02T04:23:26.391Z,30.72
2023-05-02T04:24:26.380Z,29.82
2023-05-02T04:25:26.378Z,27.28
2023-05-02T04:26:26.363Z,27.42
2023-05-02T04:27:26.381Z,30.85
2023-05-02T04:28:26.354Z,28.62
2023-05-02T04:29:26.569Z,28.11
2023-05-02T04:30:26.338Z,28.66
2023-05-02T04:31:26.433Z,29.88
2023-05-02T04:32:26.359Z,26.12
2023-05-02T04:33:26.325Z,30.67
2023-05-02T04:34:26.317Z,30.70
2023-05-02T04:35:26.316Z,28.04
2023-05-02T04:36:26.297Z,27.22
2023-05-02T04:37:26.304Z,31.17
2023-05-02T04:38:26.282Z,29.68
2023-05-02T04:39:26.297Z,31.16
2023-05-02T04:40:26.312Z,28.51
2023-05-02T04:41:26.337Z,29.40
2023-05-02T04:42:26.371Z,29.28
2023-05-02T04:43:26.388Z,30.74
2023-05-02T04:44:26.420Z,30.19
2023-05-02T04:45:26.459Z,30.48
2023-05-02T04:46:26.494Z,29.89
2023-05-02T04:47:26.533Z,28.86
2023-05-02T04:48:26.537Z,30.43
2023-05-02T04:49:26.583Z,29.98
2023-05-02T04:50:26.577Z,29.46
2023-05-02T04:51:26.601Z,28.56
2023-05-02T04:52:26.649Z,27.77
2023-05-02T04:53:26.668Z,27.36
2023-05-02T04:54:26.692Z,28.62
2023-05-02T04:55:26.725Z,30.03
2023-05-02T04:56:26.746Z,32.03
2023-05-02T04:57:26.779Z,27.85
2023-05-02T04:58:26.802Z,29.29
2023-05-02T04:59:26.831Z,29.29
2023-05-02T05:00:26.851Z,29.95
2023-05-02T05:01:26.940Z,30.82
2023-05-02T05:02:27.087Z,29.62
2023-05-02T05:03:27.063Z,31.86
2023-05-02T05:04:26.988Z,29.87
2023-05-02T05:05:27.061Z,31.14
2023-05-02T05:06:27.071Z,27.71
2023-05-02T05:07:27.424Z,29.75
2023-05-02T05:08:27.097Z,28.91
2023-05-02T05:09:27.133Z,29.38
2023-05-02T05:10:27.165Z,28.02
2023-05-02T05:11:27.200Z,30.12
2023-05-02T05:12:27.208Z,27.74
2023-05-02T05:13:27.242Z,28.71
2023-05-02T05:14:27.277Z,29.29
2023-05-02T05:15:27.303Z,28.77
2023-05-02T05:16:27.399Z,28.72
2023-05-02T05:17:27.427Z,29.56
2023-05-02T05:18:27.399Z,29.24
2023-05-02T05:19:27.438Z,31.07
2023-05-02T05:20:27.932Z,29.02
2023-05-02T05:21:27.493Z,31.15
2023-05-02T05:22:27.514Z,33.78
2023-05-02T05:23:27.550Z,32.60
2023-05-02T05:24:27.589Z,32.16
2023-05-02T05:25:28.485Z,34.26
2023-05-02T05:26:27.639Z,36.32
2023-05-02T05:27:27.661Z,38.31
2023-05-02T05:28:27.696Z,37.75
2023-05-02T05:29:27.729Z,39.09
2023-05-02T05:30:27.762Z,39.70
2023-05-02T05:31:27.825Z,42.59
2023-05-02T05:32:28.013Z,43.76
2023-05-02T05:33:27.905Z,42.33
2023-05-02T05:34:27.898Z,45.65
2023-05-02T05:35:27.938Z,46.52
2023-05-02T05:36:27.928Z,48.39
2023-05-02T05:37:28.446Z,50.13
2023-05-02T05:38:28.012Z,50.74
2023-05-02T05:39:28.024Z,55.00
2023-05-02T05:40:28.052Z,56.47
2023-05-02T05:41:28.066Z,58.06
2023-05-02T05:42:28.447Z,59.92
2023-05-02T05:43:28.127Z,58.20
2023-05-02T05:44:28.144Z,60.91
2023-05-02T05:45:28.176Z,65.87
2023-05-02T05:46:28.254Z,70.92
2023-05-02T05:47:28.578Z,68.56
2023-05-02T05:48:28.296Z,70.21
2023-05-02T05:49:28.495Z,72.12
2023-05-02T05:50:28.335Z,74.91
2023-05-02T05:51:28.381Z,78.23
2023-05-02T05:52:28.355Z,80.33
2023-05-02T05:53:28.362Z,89.00
2023-05-02T05:54:29.482Z,95.27
2023-05-02T05:55:28.599Z,101.72
2023-05-02T05:56:28.866Z,109.13
2023-05-02T05:57:29.469Z,113.28
2023-05-02T05:58:28.470Z,119.68
2023-05-02T05:59:28.531Z,126.22
2023-05-02T06:00:28.542Z,133.10
2023-05-02T06:01:28.517Z,141.67
2023-05-02T06:02:29.258Z,148.25
2023-05-02T06:03:28.682Z,153.46
2023-05-02T06:04:28.617Z,156.90
2023-05-02T06:05:28.612Z,170.05
2023-05-02T06:06:29.660Z,175.84
2023-05-02T06:07:28.592Z,186.04
2023-05-02T06:08:28.573Z,191.84
2023-05-02T06:09:28.578Z,196.85
2023-05-02T06:10:28.604Z,199.23
2023-05-02T06:11:28.604Z,205.55
2023-05-02T06:12:28.983Z,212.60
2023-05-02T06:13:28.682Z,217.87
2023-05-02T06:14:28.992Z,222.72
2023-05-02T06:15:29.759Z,226.52
2023-05-02T06:16:28.880Z,230.55
2023-05-02T06:17:29.016Z,230.79
2023-05-02T06:18:28.911Z,236.74
2023-05-02T06:19:28.960Z,241.18
2023-05-02T06:20:29.469Z,245.10
2023-05-02T06:21:29.108Z,249.11
2023-05-02T06:22:29.135Z,249.27
2023-05-02T06:23:29.465Z,249.38
2023-05-02T06:24:29.735Z,248.83
2023-05-02T06:25:29.806Z,250.00
2023-05-02T06:26:29.467Z,248.34
2023-05-02T06:27:30.692Z,249.47
2023-05-02T06:28:30.066Z,245.30
2023-05-02T06:29:29.400Z,247.46
2023-05-02T06:30:29.459Z,248.79
2023-05-02T06:31:29.427Z,248.18
2023-05-02T06:32:29.380Z,249.28
2023-05-02T06:33:29.375Z,248.57
2023-05-02T06:34:29.384Z,249.06
2023-05-02T06:35:29.462Z,247.02
2023-05-02T06:36:28.379Z,248.92
2023-05-02T06:37:29.369Z,249.87
2023-05-02T06:38:29.354Z,248.82
2023-05-02T06:39:29.330Z,248.66
2023-05-02T06:40:29.323Z,249.09
2023-05-02T06:41:29.325Z,250.00
2023-05-02T06:42:29.456Z,250.00
2023-05-02T06:43:29.425Z,250.00
2023-05-02T06:44:29.965Z,249.17
2023-05-02T06:45:29.540Z,248.18
2023-05-02T06:46:29.635Z,250.46
2023-05-02T06:47:30.010Z,250.00
2023-05-02T06:48:29.710Z,245.94
2023-05-02T06:49:29.962Z,248.13
2023-05-02T06:50:29.822Z,245.69
2023-05-02T06:51:29.893Z,247.38
2023-05-02T06:52:29.966Z,247.49
2023-05-02T06:53:32.359Z,247.75
2023-05-02T06:54:30.000Z,245.43
2023-05-02T06:55:29.981Z,242.70
2023-05-02T06:56:29.988Z,240.12
2023-05-02T06:57:30.195Z,239.90
2023-05-02T06:58:30.463Z,236.99
2023-05-02T06:59:29.958Z,236.77
2023-05-02T07:00:29.980Z,232.86
2023-05-02T07:01:30.046Z,233.30
2023-05-02T07:02:29.961Z,231.17
2023-05-02T07:03:29.970Z,230.30
2023-05-02T07:04:30.044Z,228.22
2023-05-02T07:05:29.942Z,228.04
2023-05-02T07:06:29.981Z,227.22
2023-05-02T07:07:29.896Z,222.27
2023-05-02T07:08:29.895Z,220.17
2023-05-02T07:09:29.996Z,213.40
2023-05-02T07:10:29.867Z,213.97
2023-05-02T07:11:29.871Z,216.82
2023-05-02T07:12:29.973Z,212.72
2023-05-02T07:13:29.853Z,217.60
2023-05-02T07:14:29.972Z,208.47
2023-05-02T07:15:29.841Z,206.83
2023-05-02T07:16:29.888Z,188.26
2023-05-02T07:17:30.029Z,198.57
2023-05-02T07:18:29.814Z,193.61
2023-05-02T07:19:30.806Z,194.35
2023-05-02T07:20:29.803Z,193.60
2023-05-02T07:21:29.801Z,182.38
2023-05-02T07:22:29.993Z,180.17
2023-05-02T07:23:29.967Z,185.86
2023-05-02T07:24:29.803Z,185.34
2023-05-02T07:25:30.017Z,190.33
2023-05-02T07:26:29.803Z,194.08
2023-05-02T07:27:30.005Z,195.02
2023-05-02T07:28:29.770Z,193.97
2023-05-02T07:29:29.770Z,194.28
2023-05-02T07:30:30.002Z,193.77
2023-05-02T07:31:30.100Z,194.08
2023-05-02T07:32:29.814Z,190.48
2023-05-02T07:33:30.514Z,190.24
2023-05-02T07:34:29.735Z,190.38
2023-05-02T07:35:29.986Z,188.92
2023-05-02T07:36:29.765Z,189.98
2023-05-02T07:37:30.607Z,188.63
2023-05-02T07:38:29.702Z,187.67
2023-05-02T07:39:29.714Z,187.85
2023-05-02T07:40:29.713Z,187.96
2023-05-02T07:41:30.051Z,189.28
2023-05-02T07:42:29.719Z,190.43
2023-05-02T07:43:29.697Z,189.74
2023-05-02T07:44:30.171Z,191.68
2023-05-02T07:45:30.013Z,192.69
2023-05-02T07:46:29.718Z,194.63
2023-05-02T07:47:30.654Z,198.52
2023-05-02T07:48:30.021Z,202.01
2023-05-02T07:49:29.643Z,201.83
2023-05-02T07:50:29.624Z,200.53
2023-05-02T07:51:29.665Z,204.36
2023-05-02T07:52:30.002Z,207.53
2023-05-02T07:53:30.291Z,208.24
2023-05-02T07:54:29.595Z,212.22
2023-05-02T07:55:29.600Z,213.96
2023-05-02T07:56:29.684Z,215.85
2023-05-02T07:57:29.781Z,216.33
2023-05-02T07:58:29.988Z,219.92
2023-05-02T07:59:30.002Z,223.16
2023-05-02T08:00:29.859Z,223.52
2023-05-02T08:01:29.910Z,224.88
2023-05-02T08:02:30.136Z,225.84
2023-05-02T08:03:30.117Z,228.30
2023-05-02T08:04:30.538Z,228.48
2023-05-02T08:05:30.504Z,232.16
2023-05-02T08:06:30.262Z,234.52
2023-05-02T08:07:30.493Z,235.41
2023-05-02T08:08:30.354Z,236.78
2023-05-02T08:09:30.402Z,240.69
2023-05-02T08:10:30.492Z,242.52
2023-05-02T08:11:30.529Z,244.99
2023-05-02T08:12:30.597Z,245.73
2023-05-02T08:13:30.698Z,245.57
2023-05-02T08:14:30.994Z,250.00
2023-05-02T08:15:31.010Z,249.68
2023-05-02T08:16:30.881Z,248.91
2023-05-02T08:17:30.900Z,250.00
2023-05-02T08:18:30.955Z,248.41
2023-05-02T08:19:31.006Z,248.81
2023-05-02T08:20:31.503Z,248.77
2023-05-02T08:21:31.095Z,248.71
2023-05-02T08:22:31.138Z,249.65
2023-05-02T08:23:31.362Z,249.20
2023-05-02T08:24:31.261Z,249.10
2023-05-02T08:25:31.266Z,250.00
2023-05-02T08:26:31.319Z,248.80
2023-05-02T08:27:31.527Z,249.90
2023-05-02T08:28:31.405Z,248.55
2023-05-02T08:29:31.475Z,249.90
2023-05-02T08:30:31.502Z,248.80
2023-05-02T08:31:32.150Z,250.00
2023-05-02T08:32:32.030Z,250.00
2023-05-02T08:33:32.390Z,248.60
2023-05-02T08:34:31.659Z,248.56
2023-05-02T08:35:31.711Z,249.37
2023-05-02T08:36:31.737Z,248.24
2023-05-02T08:37:32.010Z,249.44
2023-05-02T08:38:32.570Z,249.17
2023-05-02T08:39:31.843Z,250.00
2023-05-02T08:40:41.425Z,250.00
2023-05-02T08:41:31.902Z,250.36
2023-05-02T08:42:31.872Z,251.13
2023-05-02T08:43:31.870Z,253.25
2023-05-02T08:44:32.011Z,255.05
2023-05-02T08:45:31.878Z,258.32
2023-05-02T08:46:32.186Z,249.67
2023-05-02T08:47:31.911Z,248.12
2023-05-02T08:48:31.822Z,249.34
2023-05-02T08:49:32.014Z,249.37
2023-05-02T08:50:31.806Z,249.96
2023-05-02T08:51:32.006Z,249.66
2023-05-02T08:52:31.783Z,249.34
2023-05-02T08:53:31.804Z,250.00
2023-05-02T08:54:31.775Z,248.70
2023-05-02T08:55:32.012Z,248.66
2023-05-02T08:56:31.769Z,249.18
2023-05-02T08:57:31.766Z,248.84
2023-05-02T08:58:32.017Z,248.52
2023-05-02T08:59:31.789Z,249.36
2023-05-02T09:00:31.801Z,248.60
2023-05-02T09:01:31.902Z,250.00
2023-05-02T09:02:31.868Z,250.00
2023-05-02T09:03:32.018Z,249.29
2023-05-02T09:04:31.958Z,249.51
2023-05-02T09:05:32.015Z,247.94
2023-05-02T09:06:31.972Z,250.00
2023-05-02T09:07:31.964Z,250.00
2023-05-02T09:08:32.054Z,250.00
2023-05-02T09:09:32.022Z,248.96
2023-05-02T09:10:32.043Z,248.76
2023-05-02T09:11:32.522Z,248.76
2023-05-02T09:12:32.063Z,249.17
2023-05-02T09:13:32.095Z,249.70
2023-05-02T09:14:32.109Z,249.69
2023-05-02T09:15:32.512Z,249.38
2023-05-02T09:16:32.193Z,249.54
2023-05-02T09:17:32.233Z,249.07
2023-05-02T09:18:32.194Z,249.41
2023-05-02T09:19:32.521Z,250.00
2023-05-02T09:20:32.540Z,250.00
2023-05-02T09:21:32.235Z,250.00
2023-05-02T09:22:32.236Z,250.00
2023-05-02T09:23:32.255Z,248.22
2023-05-02T09:24:32.523Z,249.67
2023-05-02T09:25:32.519Z,250.00
2023-05-02T09:26:32.356Z,249.43
2023-05-02T09:27:32.296Z,270.67
2023-05-02T09:28:32.547Z,245.08
2023-05-02T09:29:32.296Z,235.05
2023-05-02T09:30:32.526Z,231.15
2023-05-02T09:31:54.110Z,229.89
2023-05-02T09:32:32.350Z,230.06
2023-05-02T09:33:32.361Z,230.56
2023-05-02T09:34:33.126Z,230.51
2023-05-02T09:35:32.556Z,230.27
2023-05-02T09:36:32.527Z,230.53
2023-05-02T09:37:32.271Z,231.89
2023-05-02T09:38:32.262Z,230.90
2023-05-02T09:39:32.530Z,231.72
2023-05-02T09:40:32.240Z,230.44
2023-05-02T09:41:32.244Z,230.46
2023-05-02T09:42:32.245Z,230.24
2023-05-02T09:43:32.527Z,229.02
2023-05-02T09:44:32.929Z,229.20
2023-05-02T09:45:32.218Z,229.40
2023-05-02T09:46:32.277Z,230.68
2023-05-02T09:47:32.217Z,230.49
2023-05-02T09:48:32.189Z,229.64
2023-05-02T09:49:32.204Z,230.34
2023-05-02T09:50:32.971Z,231.76
2023-05-02T09:51:32.169Z,231.38
2023-05-02T09:52:32.157Z,230.68
2023-05-02T09:53:32.526Z,230.01
2023-05-02T09:54:32.235Z,229.23
2023-05-02T09:55:32.281Z,226.98
2023-05-02T09:56:32.328Z,229.45
2023-05-02T09:57:32.352Z,228.17
2023-05-02T09:58:32.406Z,228.27
2023-05-02T09:59:32.434Z,226.58
2023-05-02T10:00:31.534Z,226.67
2023-05-02T10:01:32.582Z,228.01
2023-05-02T10:02:31.608Z,226.29
2023-05-02T10:03:33.035Z,227.22
2023-05-02T10:04:32.847Z,226.87
2023-05-02T10:05:32.741Z,227.63
2023-05-02T10:06:32.879Z,227.80
2023-05-02T10:07:32.827Z,219.38
2023-05-02T10:08:33.036Z,160.47
2023-05-02T10:09:33.023Z,106.86
2023-05-02T10:10:32.988Z,84.28
2023-05-02T10:11:32.998Z,79.56
2023-05-02T10:12:33.031Z,64.63
2023-05-02T10:13:33.072Z,46.42
2023-05-02T10:14:33.581Z,33.61
2023-05-02T10:15:33.110Z,31.42
2023-05-02T10:16:33.326Z,28.94
2023-05-02T10:17:33.297Z,33.32
2023-05-02T10:18:33.545Z,27.48
2023-05-02T10:19:33.555Z,25.32
2023-05-02T10:20:33.588Z,25.27
2023-05-02T10:21:33.491Z,22.01
2023-05-02T10:22:33.521Z,26.26
2023-05-02T10:23:34.050Z,29.32
2023-05-02T10:24:33.626Z,31.77
2023-05-02T10:25:33.668Z,30.04
2023-05-02T10:26:33.731Z,25.00
2023-05-02T10:27:33.799Z,24.98
2023-05-02T10:28:34.063Z,26.80
2023-05-02T10:29:33.916Z,26.30
2023-05-02T10:30:34.062Z,29.55
2023-05-02T10:31:34.063Z,34.71
2023-05-02T10:32:34.203Z,48.10
2023-05-02T10:33:34.144Z,55.56
2023-05-02T10:34:34.194Z,61.32
2023-05-02T10:35:34.568Z,65.10
2023-05-02T10:36:34.251Z,73.12
2023-05-02T10:37:34.295Z,75.97
2023-05-02T10:38:34.274Z,80.75
2023-05-02T10:39:34.285Z,88.32
2023-05-02T10:40:34.401Z,96.85
2023-05-02T10:41:34.291Z,100.60
2023-05-02T10:42:34.329Z,105.30
2023-05-02T10:43:34.371Z,108.54
2023-05-02T10:44:34.557Z,112.61
2023-05-02T10:45:34.454Z,117.10
2023-05-02T10:46:34.661Z,120.74
2023-05-02T10:47:35.589Z,122.99
2023-05-02T10:48:35.059Z,128.73
2023-05-02T10:49:34.665Z,133.09
2023-05-02T10:50:35.079Z,133.73
2023-05-02T10:51:34.780Z,137.36
2023-05-02T10:52:34.847Z,140.12
2023-05-02T10:53:35.080Z,142.58
2023-05-02T10:54:34.914Z,145.67
2023-05-02T10:55:34.958Z,148.14
2023-05-02T10:56:35.049Z,147.77
2023-05-02T10:57:35.043Z,149.68
2023-05-02T10:58:35.083Z,152.88
2023-05-02T10:59:35.115Z,155.81
2023-05-02T11:00:35.604Z,158.96
2023-05-02T11:01:35.201Z,160.61
2023-05-02T11:02:35.700Z,163.25
2023-05-02T11:03:35.267Z,166.22
2023-05-02T11:04:35.267Z,167.64
2023-05-02T11:05:35.600Z,172.34
2023-05-02T11:06:35.352Z,174.33
2023-05-02T11:07:35.353Z,177.07
2023-05-02T11:08:35.368Z,179.45
2023-05-02T11:09:35.447Z,184.18
2023-05-02T11:10:35.566Z,185.45
2023-05-02T11:11:35.484Z,186.92
2023-05-02T11:12:35.441Z,189.27
2023-05-02T11:13:35.555Z,188.23
2023-05-02T11:14:35.557Z,183.89
2023-05-02T11:15:35.528Z,176.78
2023-05-02T11:16:35.563Z,164.89
2023-05-02T11:17:35.616Z,153.69
2023-05-02T11:18:36.073Z,137.67
2023-05-02T11:19:35.666Z,127.73
2023-05-02T11:20:36.111Z,120.08
2023-05-02T11:21:35.802Z,94.25
2023-05-02T11:22:39.025Z,119.62
2023-05-02T11:23:36.256Z,119.98
2023-05-02T11:24:35.782Z,122.06
2023-05-02T11:25:36.118Z,127.26
2023-05-02T11:26:35.764Z,128.61
2023-05-02T11:27:35.761Z,126.62
2023-05-02T11:28:36.069Z,116.04
2023-05-02T11:29:35.751Z,114.42
2023-05-02T11:30:36.084Z,112.55
2023-05-02T11:31:35.801Z,126.43
2023-05-02T11:32:35.819Z,139.28
2023-05-02T11:33:35.717Z,141.02
2023-05-02T11:34:35.718Z,145.50
2023-05-02T11:35:35.778Z,146.59
2023-05-02T11:36:36.102Z,148.71
2023-05-02T11:37:35.914Z,151.46
2023-05-02T11:38:36.078Z,153.34
2023-05-02T11:39:36.022Z,154.73
2023-05-02T11:40:36.075Z,157.23
2023-05-02T11:41:36.147Z,160.13
2023-05-02T11:42:36.164Z,144.98
2023-05-02T11:43:36.582Z,112.60
2023-05-02T11:44:36.273Z,82.75
2023-05-02T11:45:36.348Z,79.25
2023-05-02T11:46:36.429Z,65.79
2023-05-02T11:47:36.443Z,60.05
2023-05-02T11:48:36.573Z,45.90
2023-05-02T11:49:36.571Z,41.17
2023-05-02T11:50:36.868Z,36.80
2023-05-02T11:51:36.629Z,34.97
2023-05-02T11:52:36.632Z,27.22
2023-05-02T11:53:37.076Z,25.00
2023-05-02T11:54:36.653Z,25.00
2023-05-02T11:55:37.141Z,38.83
2023-05-02T11:56:36.656Z,54.23
2023-05-02T11:57:36.678Z,63.85
2023-05-02T11:58:36.673Z,69.31
2023-05-02T11:59:36.653Z,72.16
2023-05-02T12:00:37.106Z,73.94
2023-05-02T12:01:36.790Z,78.39
2023-05-02T12:02:37.024Z,82.91
2023-05-02T12:03:37.193Z,88.59
2023-05-02T12:04:36.946Z,95.99
2023-05-02T12:05:37.013Z,100.37
2023-05-02T12:06:37.077Z,99.77
2023-05-02T12:07:37.577Z,98.47
2023-05-02T12:08:37.155Z,98.13
2023-05-02T12:09:37.202Z,101.38
2023-05-02T12:10:37.719Z,101.02
2023-05-02T12:11:37.307Z,104.29
2023-05-02T12:12:37.375Z,104.95
2023-05-02T12:13:37.951Z,107.61
2023-05-02T12:14:37.418Z,109.73
2023-05-02T12:15:37.669Z,111.72
2023-05-02T12:16:37.614Z,113.13
2023-05-02T12:17:38.126Z,112.73
2023-05-02T12:18:37.611Z,113.60
2023-05-02T12:19:37.636Z,113.70
2023-05-02T12:20:37.674Z,115.55
2023-05-02T12:21:37.698Z,115.48
2023-05-02T12:22:38.105Z,116.90
2023-05-02T12:23:38.115Z,118.21
2023-05-02T12:24:37.905Z,117.88
2023-05-02T12:25:38.164Z,117.70
2023-05-02T12:26:37.886Z,118.10
2023-05-02T12:27:38.012Z,119.29
2023-05-02T12:28:38.625Z,121.64
2023-05-02T12:29:38.193Z,120.95
2023-05-02T12:30:39.361Z,121.11
2023-05-02T12:31:38.680Z,122.73
2023-05-02T12:32:38.896Z,121.41
2023-05-02T12:33:38.401Z,122.14
2023-05-02T12:34:38.200Z,122.65
2023-05-02T12:35:39.093Z,124.00
2023-05-02T12:36:38.277Z,124.01
2023-05-02T12:37:38.318Z,123.67
2023-05-02T12:38:38.372Z,123.33
2023-05-02T12:39:38.448Z,124.51
2023-05-02T12:40:38.594Z,124.12
2023-05-02T12:41:38.561Z,123.62